Latest Weather Observations for Coolangatta

IDQ60801

Issued at 9:35 pm EST Sunday 23 November 2014 (issued every 30 minutes, with the page automatically refreshed every 10 minutes)

About weather observations | Map of weather stations | Latest weather observations for QLD | Other Formats
Station Details ID: 040717 Name: COOLANGATTA Lat: -28.17 Lon: 153.51 Height: 4.0 m
Data from the previous 72 hours. | See also: Recent months at Coolangatta
Date/Time
EST
Temp
°C
App
Temp
°C
Dew
Point
Rel
Hum
%
Delta-T
°C
Wind Press
QNH
hPa
Press
MSL
hPa
Rain
since 9 am
mm
Dir
 
Spd
km/h
Gust
km/h
Spd
kts
Gust
kts
23/09:30pm 22.7 22.2 20.8 89 1.2 N 24 30 13 16 1017.0 1016.9 0.0
23/09:23pm 22.6 22.1 20.7 89 1.2 N 24 33 13 18 1017.0 1016.9 0.0
23/09:11pm 22.7 22.2 20.8 89 1.2 N 24 30 13 16 1017.0 1016.9 0.0
23/09:00pm 22.6 22.0 20.5 88 1.4 N 24 30 13 16 1016.9 1016.8 0.0
23/08:30pm 22.4 22.1 20.3 88 1.4 N 22 28 12 15 1016.8 1016.7 0.0
23/08:00pm 22.5 21.8 20.2 87 1.5 N 24 30 13 16 1016.6 1016.5 0.0
23/07:30pm 22.4 22.4 20.1 87 1.5 N 20 26 11 14 1016.3 1016.2 0.0
23/07:00pm 22.3 21.4 19.8 86 1.6 N 24 28 13 15 1015.8 1015.7 0.0
23/06:30pm 22.5 21.4 19.5 83 1.9 N 24 30 13 16 1015.5 1015.4 0.0
23/06:00pm 22.9 22.2 19.5 81 2.2 N 22 30 12 16 1014.9 1014.8 0.0
23/05:30pm 23.0 21.9 19.4 80 2.3 N 24 33 13 18 1014.3 1014.2 0.0
23/05:00pm 23.1 22.3 19.3 79 2.4 N 22 30 12 16 1014.1 1014.0 0.0
23/04:30pm 23.7 23.2 19.2 76 2.9 N 20 28 11 15 1014.3 1014.2 0.0
23/04:00pm 24.3 23.2 19.4 74 3.1 N 24 32 13 17 1014.3 1014.2 0.0
23/03:30pm 24.4 22.4 19.2 73 3.3 N 28 35 15 19 1014.3 1014.2 0.0
23/03:00pm 25.1 23.4 19.0 69 3.9 N 26 35 14 19 1014.5 1014.4 0.0
23/02:30pm 25.3 22.9 19.2 69 3.9 N 30 39 16 21 1014.6 1014.5 0.0
23/02:00pm 25.5 22.9 18.7 66 4.3 N 30 37 16 20 1014.9 1014.8 0.0
23/01:30pm 26.6 24.0 19.5 65 4.6 N 32 43 17 23 1015.2 1015.1 0.0
23/01:00pm 26.6 24.1 19.7 66 4.5 N 32 41 17 22 1015.5 1015.4 0.0
23/12:30pm 26.0 23.1 20.1 70 3.8 N 35 44 19 24 1015.6 1015.5 0.0
23/12:00pm 26.0 23.1 20.1 70 3.8 N 35 43 19 23 1016.2 1016.1 0.0
23/11:30am 25.6 22.5 19.7 70 3.8 N 35 44 19 24 1016.5 1016.4 0.0
23/11:00am 25.7 22.3 19.8 70 3.8 N 37 46 20 25 1016.8 1016.7 0.0
23/10:30am 25.8 22.4 19.9 70 3.8 N 37 46 20 25 1016.9 1016.8 0.0
23/10:00am 25.9 23.2 20.5 72 3.5 N 35 44 19 24 1017.1 1017.0 0.0
23/09:30am 25.6 22.6 19.9 70 3.7 N 35 44 19 24 1017.4 1017.3 0.0
23/09:00am 26.1 24.1 20.7 72 3.5 N 32 44 17 24 1017.3 1017.2 0.0
23/08:30am 25.2 22.8 20.0 73 3.4 N 32 39 17 21 1017.5 1017.4 0.0
23/08:00am 25.3 23.6 19.9 72 3.5 N 28 37 15 20 1017.5 1017.4 0.0
23/07:30am 25.3 24.7 20.5 75 3.1 N 24 32 13 17 1017.5 1017.4 0.0
23/07:00am 24.2 23.4 20.1 78 2.7 N 24 30 13 16 1017.5 1017.4 0.0
23/06:30am 24.1 23.5 20.6 81 2.3 N 24 30 13 16 1017.3 1017.2 0.0
23/06:00am 23.1 23.1 20.2 84 1.9 N 20 28 11 15 1016.9 1016.8 0.0
23/05:30am 22.9 22.5 20.2 85 1.7 N 22 30 12 16 1016.5 1016.4 0.0
23/05:00am 21.7 21.6 19.6 88 1.3 N 19 26 10 14 1016.2 1016.1 0.0
23/04:30am 22.2 20.8 18.8 81 2.1 N 24 33 13 18 1015.7 1015.6 0.0
23/04:00am 22.6 21.8 20.1 86 1.6 N 24 30 13 16 1015.5 1015.4 0.0
23/03:30am 21.9 21.1 20.0 89 1.2 N 24 28 13 15 1015.2 1015.1 0.0
23/03:00am 22.0 21.7 20.3 90 1.1 N 22 30 12 16 1015.0 1014.9 0.0
23/02:30am 21.8 21.5 20.3 91 1.0 N 22 28 12 15 1014.9 1014.8 0.0
23/02:00am 21.9 21.6 20.4 91 1.0 N 22 28 12 15 1015.0 1014.9 0.0
23/01:30am 22.1 21.8 20.4 90 1.1 N 22 30 12 16 1015.2 1015.1 0.0
23/01:00am 22.4 22.3 20.7 90 1.1 N 22 28 12 15 1015.4 1015.3 0.0
23/12:30am 22.5 22.5 21.0 91 1.0 N 22 26 12 14 1015.6 1015.5 0.0
23/12:00am 22.3 22.1 20.6 90 1.1 N 22 28 12 15 1015.6 1015.5 0.0
 
Date/Time
EST
Temp
°C
App
Temp
°C
Dew
Point
Rel
Hum
%
Delta-T
°C
Wind Press
QNH
hPa
Press
MSL
hPa
Rain
since 9 am
mm
Dir
 
Spd
km/h
Gust
km/h
Spd
kts
Gust
kts
22/11:30pm 22.7 22.5 20.6 88 1.4 N 22 28 12 15 1015.9 1015.8 0.0
22/11:00pm 23.3 22.5 20.8 86 1.6 N 26 32 14 17 1016.0 1015.9 0.0
22/10:30pm 23.5 23.5 21.0 86 1.6 N 22 30 12 16 1015.9 1015.8 0.0
22/10:00pm 22.7 22.1 20.6 88 1.4 N 24 30 13 16 1016.0 1015.9 0.0
22/09:30pm 22.6 21.9 20.3 87 1.5 N 24 32 13 17 1015.8 1015.7 0.0
22/09:00pm 22.8 22.2 20.5 87 1.5 N 24 32 13 17 1015.7 1015.6 0.0
22/08:30pm 22.8 21.7 20.3 86 1.6 N 26 32 14 17 1015.3 1015.2 0.0
22/08:00pm 22.5 22.0 20.0 86 1.6 N 22 32 12 17 1014.9 1014.8 0.0
22/07:30pm 22.7 22.0 20.2 86 1.6 N 24 32 13 17 1014.5 1014.4 0.0
22/07:00pm 23.0 21.9 20.3 85 1.7 N 26 33 14 18 1014.0 1013.9 0.0
22/06:30pm 23.0 22.3 20.3 85 1.7 N 24 30 13 16 1013.6 1013.5 0.0
22/06:00pm 23.3 22.3 20.4 84 1.9 N 26 35 14 19 1013.3 1013.2 0.0
22/05:30pm 24.0 23.2 20.9 83 2.0 N 26 35 14 19 1012.6 1012.5 0.0
22/05:00pm 24.2 24.1 20.7 81 2.3 N 22 32 12 17 1012.4 1012.3 0.0
22/04:30pm 24.8 23.9 20.7 78 2.7 N 26 33 14 18 1012.2 1012.1 0.0
22/04:00pm 24.8 23.6 20.9 79 2.6 N 28 37 15 20 1011.9 1011.8 0.0
22/03:30pm 25.1 24.1 21.2 79 2.6 N 28 35 15 19 1012.0 1011.9 0.0
22/03:00pm 25.7 24.6 21.1 76 3.0 N 28 35 15 19 1012.1 1012.0 0.0
22/02:30pm 26.5 25.2 21.3 73 3.4 N 30 37 16 20 1012.2 1012.1 0.0
22/02:00pm 26.1 24.0 20.9 73 3.4 N 33 44 18 24 1012.5 1012.4 0.0
22/01:30pm 26.4 24.8 20.7 71 3.7 N 30 39 16 21 1012.7 1012.6 0.0
22/01:00pm 26.3 23.8 20.8 71 3.6 N 35 44 19 24 1012.9 1012.8 0.0
22/12:30pm 26.5 23.6 21.5 74 3.3 N 39 48 21 26 1013.0 1012.9 0.0
22/12:00pm 27.0 24.5 21.7 73 3.5 N 37 46 20 25 1013.4 1013.3 0.0
22/11:30am 26.6 24.1 21.6 74 3.3 N 37 50 20 27 1013.6 1013.5 0.0
22/11:00am 26.0 23.7 21.2 75 3.2 N 35 43 19 23 1014.0 1013.9 0.0
22/10:30am 25.9 23.2 21.3 76 3.0 N 37 46 20 25 1014.1 1014.0 0.0
22/10:00am 25.6 23.1 20.8 75 3.2 N 35 43 19 23 1014.4 1014.3 0.0
22/09:30am 25.5 23.4 20.5 74 3.3 N 32 39 17 21 1014.7 1014.6 0.0
22/09:00am 25.6 23.5 20.6 74 3.3 N 32 39 17 21 1014.8 1014.7 0.0
22/08:30am 26.2 24.8 21.2 74 3.3 N 30 39 16 21 1014.8 1014.7 0.0
22/08:00am 25.9 25.1 20.9 74 3.3 N 26 32 14 17 1014.6 1014.5 0.0
22/07:30am 25.3 24.7 21.2 78 2.7 N 26 30 14 16 1014.7 1014.6 0.0
22/07:00am 24.3 23.7 20.6 80 2.4 N 24 32 13 17 1014.6 1014.5 0.0
22/06:30am 24.9 25.6 21.6 82 2.2 NNW 20 30 11 16 1014.4 1014.3 0.0
22/06:00am 22.9 23.3 20.6 87 1.5 N 19 26 10 14 1014.0 1013.9 0.0
22/05:30am 22.0 20.9 20.3 90 1.1 N 26 32 14 17 1013.7 1013.6 0.0
22/05:00am 22.2 21.5 20.3 89 1.2 N 24 30 13 16 1013.4 1013.3 0.0
22/04:30am 22.0 21.3 20.3 90 1.1 N 24 32 13 17 1012.9 1012.8 0.0
22/04:00am 21.9 21.6 20.4 91 1.0 N 22 28 12 15 1012.5 1012.4 0.0
22/03:30am 22.1 21.5 20.4 90 1.1 N 24 30 13 16 1012.2 1012.1 0.0
22/03:00am 22.1 21.1 20.4 90 1.1 N 26 32 14 17 1012.1 1012.0 0.0
22/02:30am 22.0 20.6 20.5 91 1.0 N 28 33 15 18 1011.9 1011.8 0.0
22/02:00am 22.0 21.8 20.5 91 1.0 N 22 32 12 17 1011.6 1011.5 0.0
22/01:30am 22.0 20.7 20.6 92 0.9 N 28 33 15 18 1011.7 1011.6 0.0
22/01:00am 22.2 21.0 20.8 92 0.9 N 28 33 15 18 1012.1 1012.0 0.0
22/12:30am 22.7 21.4 21.3 92 0.9 N 30 39 16 21 1011.9 1011.8 0.0
22/12:00am 22.5 22.2 21.1 92 0.9 N 24 30 13 16 1012.3 1012.2 0.0
 
Date/Time
EST
Temp
°C
App
Temp
°C
Dew
Point
Rel
Hum
%
Delta-T
°C
Wind Press
QNH
hPa
Press
MSL
hPa
Rain
since 9 am
mm
Dir
 
Spd
km/h
Gust
km/h
Spd
kts
Gust
kts
21/11:30pm 22.3 21.8 20.8 91 1.0 N 24 33 13 18 1013.0 1012.9 0.0
21/11:00pm 22.2 22.1 20.7 91 1.0 N 22 30 12 16 1013.2 1013.1 0.0
21/10:30pm 22.3 22.6 20.8 91 1.0 N 20 26 11 14 1013.6 1013.5 0.0
21/10:00pm 22.5 22.4 20.8 90 1.1 N 22 28 12 15 1013.6 1013.5 0.0
21/09:30pm 22.9 22.3 21.2 90 1.1 N 26 35 14 19 1013.5 1013.4 0.0
21/09:00pm 23.4 22.2 21.5 89 1.3 N 30 35 16 19 1013.6 1013.5 0.0
21/08:30pm 23.0 22.9 21.4 91 1.1 N 24 33 13 18 1013.3 1013.2 0.0
21/08:00pm 23.0 22.5 21.4 91 1.1 N 26 33 14 18 1013.1 1013.0 0.0
21/07:30pm 23.0 22.8 21.3 90 1.1 N 24 32 13 17 1013.0 1012.9 0.0
21/07:00pm 23.5 22.7 21.6 89 1.3 N 28 39 15 21 1012.9 1012.8 0.0
21/06:30pm 23.4 22.5 21.5 89 1.3 N 28 35 15 19 1012.5 1012.4 0.0
21/06:00pm 23.5 22.6 21.4 88 1.4 N 28 35 15 19 1012.2 1012.1 0.0
21/05:30pm 24.0 23.1 21.5 86 1.7 N 28 37 15 20 1011.8 1011.7 0.0
21/05:00pm 24.4 23.8 21.3 83 2.0 N 26 33 14 18 1011.4 1011.3 0.0
21/04:30pm 25.0 23.3 21.7 82 2.2 N 33 41 18 22 1011.2 1011.1 0.0
21/04:00pm 25.3 23.7 21.8 81 2.3 N 33 41 18 22 1011.2 1011.1 0.0
21/03:30pm 26.1 24.6 21.7 77 2.9 N 32 44 17 24 1011.4 1011.3 0.0
21/03:00pm 26.2 24.2 21.8 77 2.9 N 35 46 19 25 1011.2 1011.1 0.0
21/02:30pm 26.3 24.2 21.7 76 3.1 N 35 44 19 24 1011.5 1011.4 0.0
21/02:00pm 26.6 24.6 21.8 75 3.2 N 35 43 19 23 1011.9 1011.8 0.0
21/01:30pm 26.8 24.1 22.0 75 3.2 N 39 50 21 27 1012.1 1012.0 0.0
21/01:00pm 26.9 24.9 22.5 77 3.0 N 37 48 20 26 1012.5 1012.4 0.0
21/12:30pm 26.5 24.0 21.7 75 3.2 N 37 50 20 27 1012.8 1012.7 0.0
21/12:00pm 26.2 23.5 21.2 74 3.3 N 37 50 20 27 1013.4 1013.3 0.0
21/11:30am 26.9 24.0 21.6 72 3.5 N 39 48 21 26 1013.9 1013.8 0.0
21/11:00am 26.6 24.1 21.6 74 3.3 N 37 48 20 26 1014.3 1014.2 0.0
21/10:30am 26.5 23.9 21.5 74 3.3 N 37 44 20 24 1014.6 1014.5 0.0
21/10:00am 26.5 23.9 21.5 74 3.3 N 37 48 20 26 1015.0 1014.9 0.0
21/09:30am 25.9 24.3 21.6 77 2.9 N 32 43 17 23 1015.4 1015.3 0.0
21/09:00am 24.5 22.4 20.6 79 2.5 N 32 41 17 22 1015.5 1015.4 0.0
21/08:30am 24.0 22.8 20.9 83 2.0 N 28 37 15 20 1015.7 1015.6 0.0
21/08:00am 25.4 24.0 21.1 77 2.8 N 30 39 16 21 1015.7 1015.6 0.0
21/07:30am 25.0 24.1 21.5 81 2.3 N 28 35 15 19 1015.8 1015.7 0.0
21/07:19am 24.7 23.8 21.4 82 2.2 N 28 35 15 19 1015.8 1015.7 0.0
21/07:00am 24.1 24.0 21.4 85 1.8 N 24 30 13 16 1015.9 1015.8 0.0
21/06:30am 23.3 23.4 21.2 88 1.4 N 22 32 12 17 1015.7 1015.6 0.0
21/06:26am 23.2 23.8 21.3 89 1.2 N 20 28 11 15 1015.7 1015.6 0.0
21/06:11am 22.6 22.3 21.1 91 1.0 N 24 30 13 16 1015.5 1015.4 0.0
21/06:00am 22.6 22.3 21.1 91 1.0 N 24 30 13 16 1015.4 1015.3 0.0
21/05:58am 22.6 21.9 21.1 91 1.0 N 26 32 14 17 1015.4 1015.3 0.0
21/05:57am 22.6 22.3 21.1 91 1.0 N 24 32 13 17 1015.3 1015.2 0.0
21/05:30am 22.7 22.3 21.0 90 1.1 N 24 32 13 17 1015.1 1015.0 0.0
21/05:00am 22.6 22.2 20.9 90 1.1 N 24 33 13 18 1015.0 1014.9 0.0
21/04:52am 22.6 21.7 20.7 89 1.2 NNW 26 33 14 18 1015.0 1014.9 0.0
21/04:30am 22.6 22.2 20.9 90 1.1 N 24 37 13 20 1014.8 1014.7 0.0
21/04:00am 22.5 22.5 21.0 91 1.0 N 22 33 12 18 1014.5 1014.4 0.0
21/03:30am 22.5 22.2 21.1 92 0.9 N 24 30 13 16 1014.6 1014.5 0.0
21/03:00am 22.3 21.8 20.8 91 1.0 N 24 32 13 17 1014.4 1014.3 0.0
21/02:30am 22.5 22.1 21.0 91 1.0 N 24 32 13 17 1014.6 1014.5 0.0
21/02:00am 22.6 22.3 21.1 91 1.0 N 24 30 13 16 1014.7 1014.6 0.0
21/01:30am 22.5 22.0 20.8 90 1.1 N 24 35 13 19 1015.0 1014.9 0.0
21/01:00am 22.7 22.7 21.0 90 1.1 N 22 30 12 16 1015.1 1015.0 0.0
21/12:30am 22.8 22.6 21.3 91 1.0 N 24 32 13 17 1015.3 1015.2 0.0
21/12:00am 22.7 22.7 21.0 90 1.1 N 22 28 12 15 1015.8 1015.7 0.0
 
Date/Time
EST
Temp
°C
App
Temp
°C
Dew
Point
Rel
Hum
%
Delta-T
°C
Wind Press
QNH
hPa
Press
MSL
hPa
Rain
since 9 am
mm
Dir
 
Spd
km/h
Gust
km/h
Spd
kts
Gust
kts
20/11:30pm 22.7 22.7 21.0 90 1.1 N 22 30 12 16 1016.2 1016.1 0.0
20/11:00pm 23.0 23.4 20.9 88 1.4 N 20 26 11 14 1016.8 1016.7 0.0
20/10:30pm 23.0 22.3 21.1 89 1.2 N 26 32 14 17 1016.9 1016.8 0.0
20/10:00pm 22.9 22.2 21.0 89 1.2 N 26 32 14 17 1017.0 1016.9 0.0

Other Formats:

Comma delimited format used in spreadsheet applications
http://www.bom.gov.au/fwo/IDQ60801/IDQ60801.94592.axf

JavaScript Object Notation format (JSON) in row-major order
http://www.bom.gov.au/fwo/IDQ60801/IDQ60801.94592.json